createdAt,value
2022-09-06T00:00:26.486Z,6.07
2022-09-06T00:03:11.866Z,5.68
2022-09-06T00:05:57.473Z,6.10
2022-09-06T00:08:47.510Z,5.70
2022-09-06T00:11:32.998Z,5.65
2022-09-06T00:14:18.483Z,6.05
2022-09-06T00:17:04.255Z,5.90
2022-09-06T00:19:49.773Z,5.65
2022-09-06T00:22:36.489Z,6.03
2022-09-06T00:25:22.239Z,6.05
2022-09-06T00:28:07.525Z,6.70
2022-09-06T00:30:53.094Z,6.50
2022-09-06T00:33:38.961Z,7.22
2022-09-06T00:36:24.558Z,7.57
2022-09-06T00:39:10.337Z,7.00
2022-09-06T00:41:55.865Z,6.25
2022-09-06T00:44:41.519Z,7.20
2022-09-06T00:47:28.086Z,7.28
2022-09-06T00:50:17.809Z,7.82
2022-09-06T00:53:03.206Z,7.32
2022-09-06T00:55:48.826Z,7.38
2022-09-06T00:58:34.633Z,7.07
2022-09-06T01:01:20.406Z,8.05
2022-09-06T01:04:06.654Z,7.65
2022-09-06T01:07:34.553Z,7.75
2022-09-06T01:10:37.239Z,8.60
2022-09-06T01:13:31.593Z,8.10
2022-09-06T01:16:39.341Z,8.32
2022-09-06T01:19:33.064Z,8.82
2022-09-06T01:22:44.704Z,8.25
2022-09-06T01:25:54.349Z,8.55
2022-09-06T01:28:46.652Z,7.85
2022-09-06T01:31:37.459Z,8.57
2022-09-06T01:34:52.483Z,7.68
2022-09-06T01:37:38.172Z,7.68
2022-09-06T01:40:23.815Z,7.60
2022-09-06T01:43:12.903Z,6.28
2022-09-06T01:46:17.717Z,6.88
2022-09-06T01:49:18.346Z,6.70
2022-09-06T01:52:30.535Z,5.95
2022-09-06T01:55:28.218Z,6.37
2022-09-06T01:58:38.439Z,6.25
2022-09-06T02:01:56.318Z,6.15
2022-09-06T02:04:51.809Z,5.90
2022-09-06T02:07:37.919Z,5.93
2022-09-06T02:10:49.275Z,6.03
2022-09-06T02:13:45.899Z,6.88
2022-09-06T02:16:34.361Z,5.97
2022-09-06T02:19:36.710Z,6.03
2022-09-06T02:22:27.431Z,6.00
2022-09-06T02:25:31.694Z,5.35
2022-09-06T02:28:17.878Z,5.93
2022-09-06T02:31:12.215Z,5.93
2022-09-06T02:33:58.488Z,6.10
2022-09-06T02:36:44.395Z,5.75
2022-09-06T02:39:29.842Z,6.20
2022-09-06T02:42:17.560Z,6.20
2022-09-06T02:45:02.889Z,5.85
2022-09-06T02:47:48.406Z,6.28
2022-09-06T02:50:33.768Z,6.68
2022-09-06T02:53:19.469Z,6.60
2022-09-06T02:56:05.130Z,7.13
2022-09-06T02:58:50.334Z,6.65
2022-09-06T03:01:35.816Z,6.57
2022-09-06T03:04:21.308Z,6.57
2022-09-06T03:07:06.900Z,6.45
2022-09-06T03:09:52.448Z,7.60
2022-09-06T03:12:38.214Z,7.10
2022-09-06T03:15:23.589Z,7.78
2022-09-06T03:18:09.099Z,6.95
2022-09-06T03:20:55.372Z,7.30
2022-09-06T03:23:40.602Z,7.38
2022-09-06T03:26:26.760Z,7.93
2022-09-06T03:29:12.455Z,8.38
2022-09-06T03:31:58.147Z,7.55
2022-09-06T03:34:43.887Z,7.28
2022-09-06T03:37:29.183Z,7.35
2022-09-06T03:40:14.708Z,7.30
2022-09-06T03:43:00.219Z,8.02
2022-09-06T03:45:51.112Z,6.65
2022-09-06T03:48:36.895Z,7.43
2022-09-06T03:51:22.324Z,6.63
2022-09-06T03:54:07.890Z,6.68
2022-09-06T03:56:53.325Z,6.45
2022-09-06T03:59:38.712Z,7.18
2022-09-06T04:02:24.367Z,6.53
2022-09-06T04:05:10.160Z,6.30
2022-09-06T04:07:55.638Z,6.90
2022-09-06T04:10:41.208Z,6.65
2022-09-06T04:13:28.505Z,6.75
2022-09-06T04:16:14.357Z,6.88
2022-09-06T04:19:01.923Z,7.53
2022-09-06T04:21:47.171Z,7.20
2022-09-06T04:24:32.636Z,8.00
2022-09-06T04:27:18.243Z,7.60
2022-09-06T04:30:04.237Z,7.93
2022-09-06T04:32:49.611Z,8.00
2022-09-06T04:35:35.065Z,8.45
2022-09-06T04:38:20.647Z,8.30
2022-09-06T04:41:07.330Z,9.95
2022-09-06T04:43:52.436Z,8.85
2022-09-06T04:46:40.943Z,8.50
2022-09-06T04:49:26.578Z,8.68
2022-09-06T04:52:12.292Z,8.85
2022-09-06T04:54:57.781Z,9.40
2022-09-06T04:57:46.557Z,8.73
2022-09-06T05:00:35.483Z,8.65
2022-09-06T05:03:21.289Z,9.45
2022-09-06T05:06:09.694Z,9.98
2022-09-06T05:08:54.903Z,10.13
2022-09-06T05:11:40.442Z,9.75
2022-09-06T05:14:27.317Z,9.63
2022-09-06T05:17:14.766Z,10.23
2022-09-06T05:19:59.887Z,10.85
2022-09-06T05:22:54.283Z,11.38
2022-09-06T05:25:39.802Z,10.07
2022-09-06T05:28:25.193Z,10.77
2022-09-06T05:31:13.369Z,11.63
2022-09-06T05:33:59.805Z,11.48
2022-09-06T05:36:46.233Z,10.73
2022-09-06T05:39:31.669Z,10.02
2022-09-06T05:42:19.256Z,10.98
2022-09-06T05:45:06.621Z,11.80
2022-09-06T05:47:52.399Z,11.05
2022-09-06T05:50:37.715Z,12.02
2022-09-06T05:53:23.179Z,12.00
2022-09-06T05:56:09.626Z,11.55
2022-09-06T05:58:54.886Z,11.50
2022-09-06T06:01:56.765Z,11.90
2022-09-06T06:04:41.988Z,10.60
2022-09-06T06:07:27.351Z,11.32
2022-09-06T06:10:13.010Z,12.57
2022-09-06T06:12:58.426Z,13.45
2022-09-06T06:15:43.935Z,10.15
2022-09-06T06:18:29.645Z,11.48
2022-09-06T06:21:16.007Z,10.98
2022-09-06T06:24:06.292Z,10.68
2022-09-06T06:26:51.594Z,10.50
2022-09-06T06:29:37.116Z,10.18
2022-09-06T06:32:22.535Z,12.65
2022-09-06T06:35:09.581Z,11.23
2022-09-06T06:37:56.394Z,12.02
2022-09-06T06:40:45.970Z,11.05
2022-09-06T06:43:36.385Z,8.73
2022-09-06T06:46:23.514Z,8.27
2022-09-06T06:49:09.254Z,7.93
2022-09-06T06:51:54.627Z,8.25
2022-09-06T06:54:40.058Z,7.70
2022-09-06T06:57:25.466Z,7.13
2022-09-06T07:00:11.389Z,7.90
2022-09-06T07:02:57.227Z,8.75
2022-09-06T07:08:52.399Z,7.28
2022-09-06T07:11:38.403Z,7.63
2022-09-06T07:14:24.010Z,7.18
2022-09-06T07:17:09.471Z,7.65
2022-09-06T07:26:17.017Z,5.93
2022-09-06T07:29:04.590Z,5.07
2022-09-06T07:34:55.632Z,4.13
2022-09-06T07:37:41.332Z,4.32
2022-09-06T07:40:29.052Z,3.22
2022-09-06T07:43:15.255Z,3.80
2022-09-06T07:46:05.044Z,3.50
2022-09-06T07:48:50.868Z,3.47
2022-09-06T07:51:36.090Z,3.83
2022-09-06T07:54:31.189Z,4.07
2022-09-06T07:57:17.162Z,2.88
2022-09-06T08:00:04.080Z,3.20
2022-09-06T08:02:49.450Z,3.20
2022-09-06T08:11:46.032Z,2.67
2022-09-06T08:14:31.404Z,3.10
2022-09-06T08:17:17.188Z,2.65
2022-09-06T08:20:04.104Z,3.10
2022-09-06T08:22:49.866Z,2.85
2022-09-06T08:25:36.450Z,2.83
2022-09-06T08:28:24.533Z,2.67
2022-09-06T08:31:14.719Z,3.90
2022-09-06T08:34:01.605Z,2.97
2022-09-06T08:36:46.810Z,2.47
2022-09-06T08:39:32.251Z,2.67
2022-09-06T08:42:17.727Z,2.00
2022-09-06T08:45:08.919Z,2.83
2022-09-06T08:47:55.837Z,2.88
2022-09-06T08:50:47.303Z,2.58
2022-09-06T08:53:36.893Z,3.15
2022-09-06T08:56:27.802Z,4.07
2022-09-06T08:59:17.648Z,2.42
2022-09-06T09:02:16.791Z,2.55
2022-09-06T09:05:06.205Z,1.98
2022-09-06T09:08:07.006Z,3.10
2022-09-06T09:11:04.787Z,3.15
2022-09-06T09:14:05.015Z,2.80
2022-09-06T09:16:55.012Z,2.72
2022-09-06T09:19:42.190Z,2.78
2022-09-06T09:22:28.218Z,1.95
2022-09-06T09:25:20.622Z,2.58
2022-09-06T09:28:17.694Z,2.10
2022-09-06T09:31:03.503Z,2.38
2022-09-06T09:33:49.034Z,2.60
2022-09-06T09:36:34.623Z,2.50
2022-09-06T09:39:20.056Z,2.58
2022-09-06T09:42:09.570Z,2.75
2022-09-06T09:44:56.128Z,2.30
2022-09-06T09:47:41.528Z,2.38
2022-09-06T09:50:32.659Z,2.70
2022-09-06T09:53:22.090Z,1.92
2022-09-06T09:56:08.072Z,2.13
2022-09-06T09:58:56.078Z,2.78
2022-09-06T10:01:41.674Z,2.63
2022-09-06T10:04:44.559Z,2.47
2022-09-06T10:07:41.559Z,2.90
2022-09-06T10:10:34.086Z,2.25
2022-09-06T10:16:07.753Z,2.60
2022-09-06T10:18:53.368Z,3.05
2022-09-06T10:21:39.120Z,2.25
2022-09-06T10:24:52.043Z,2.38
2022-09-06T10:28:10.396Z,2.28
2022-09-06T10:31:16.160Z,2.40
2022-09-06T10:34:35.386Z,2.33
2022-09-06T10:37:25.193Z,2.25
2022-09-06T10:40:12.616Z,3.17
2022-09-06T10:43:01.395Z,2.67
2022-09-06T10:46:02.258Z,2.40
2022-09-06T10:48:48.613Z,2.75
2022-09-06T10:51:46.480Z,2.90
2022-09-06T10:54:35.703Z,3.42
2022-09-06T11:00:39.233Z,1.77
2022-09-06T11:06:52.703Z,2.30
2022-09-06T11:09:52.239Z,2.20
2022-09-06T11:12:59.732Z,2.72
2022-09-06T11:16:00.621Z,2.42
2022-09-06T11:18:54.065Z,2.28
2022-09-06T11:22:18.230Z,2.08
2022-09-06T11:25:41.725Z,2.30
2022-09-06T11:28:36.623Z,3.42
2022-09-06T11:34:38.490Z,1.90
2022-09-06T11:37:32.791Z,2.08
2022-09-06T11:43:18.741Z,2.30
2022-09-06T11:46:04.505Z,2.20
2022-09-06T11:49:04.915Z,2.78
2022-09-06T11:51:50.319Z,2.42
2022-09-06T11:54:44.563Z,2.30
2022-09-06T11:57:31.300Z,2.03
2022-09-06T12:00:23.786Z,2.28
2022-09-06T12:06:37.558Z,2.72
2022-09-06T12:09:33.246Z,2.38
2022-09-06T12:12:45.769Z,3.42
2022-09-06T12:15:54.509Z,4.20
2022-09-06T12:18:43.094Z,2.47
2022-09-06T12:21:41.426Z,2.53
2022-09-06T12:24:36.094Z,3.13
2022-09-06T12:27:24.074Z,3.67
2022-09-06T12:30:12.467Z,2.45
2022-09-06T12:32:58.693Z,2.63
2022-09-06T12:36:03.321Z,1.70
2022-09-06T12:39:01.468Z,2.90
2022-09-06T12:41:57.308Z,2.10
2022-09-06T12:44:51.028Z,2.67
2022-09-06T12:47:37.910Z,1.95
2022-09-06T12:50:26.011Z,2.22
2022-09-06T12:53:24.983Z,2.05
2022-09-06T12:56:14.574Z,2.72
2022-09-06T12:59:23.504Z,2.35
2022-09-06T13:02:16.111Z,1.88
2022-09-06T13:05:06.266Z,2.05
2022-09-06T13:07:55.372Z,1.65
2022-09-06T13:10:44.829Z,1.95
2022-09-06T13:13:30.842Z,1.80
2022-09-06T13:16:20.468Z,1.92
2022-09-06T13:19:38.015Z,1.80
2022-09-06T13:22:45.415Z,1.63
2022-09-06T13:25:31.139Z,2.30
2022-09-06T13:28:27.814Z,1.70
2022-09-06T13:31:21.670Z,2.17
2022-09-06T13:34:07.576Z,1.73
2022-09-06T13:37:01.556Z,1.73
2022-09-06T13:39:46.786Z,1.73
2022-09-06T13:42:35.953Z,2.30
2022-09-06T13:45:27.394Z,1.30
2022-09-06T13:48:28.290Z,1.98
2022-09-06T13:51:14.844Z,2.03
2022-09-06T13:54:14.178Z,1.92
2022-09-06T13:57:01.694Z,2.75
2022-09-06T13:59:47.389Z,1.77
2022-09-06T14:02:33.617Z,1.30
2022-09-06T14:05:19.412Z,1.90
2022-09-06T14:08:05.130Z,1.88
2022-09-06T14:10:51.726Z,1.50
2022-09-06T14:13:37.281Z,1.92
2022-09-06T14:16:23.069Z,1.50
2022-09-06T14:19:08.847Z,1.63
2022-09-06T14:21:54.287Z,1.60
2022-09-06T14:24:39.982Z,2.78
2022-09-06T14:27:25.481Z,1.90
2022-09-06T14:30:11.643Z,1.63
2022-09-06T14:32:57.545Z,2.22
2022-09-06T14:35:43.107Z,1.63
2022-09-06T14:38:28.942Z,2.53
2022-09-06T14:41:15.592Z,1.50
2022-09-06T14:44:01.397Z,1.90
2022-09-06T14:46:48.686Z,2.53
2022-09-06T14:49:34.314Z,1.83
2022-09-06T14:52:20.044Z,2.95
2022-09-06T14:55:06.117Z,3.28
2022-09-06T14:57:51.452Z,2.03
2022-09-06T15:00:37.241Z,2.75
2022-09-06T15:03:22.406Z,1.80
2022-09-06T15:06:08.366Z,2.30
2022-09-06T15:08:59.013Z,2.13
2022-09-06T15:11:48.592Z,2.13
2022-09-06T15:14:34.568Z,1.65
2022-09-06T15:17:19.819Z,2.33
2022-09-06T15:20:05.896Z,2.45
2022-09-06T15:23:09.028Z,2.60
2022-09-06T15:25:57.016Z,3.42
2022-09-06T15:28:46.065Z,2.53
2022-09-06T15:31:34.144Z,2.33
2022-09-06T15:34:25.904Z,2.88
2022-09-06T15:37:11.583Z,2.63
2022-09-06T15:39:57.437Z,2.22
2022-09-06T15:42:43.393Z,3.38
2022-09-06T15:45:29.706Z,2.72
2022-09-06T15:48:17.841Z,2.17
2022-09-06T15:51:03.463Z,2.72
2022-09-06T15:53:49.043Z,2.95
2022-09-06T15:56:35.165Z,3.10
2022-09-06T15:59:20.784Z,2.63
2022-09-06T16:02:07.662Z,2.15
2022-09-06T16:04:52.996Z,3.03
2022-09-06T16:07:40.991Z,2.00
2022-09-06T16:10:26.553Z,2.20
2022-09-06T16:13:12.024Z,2.75
2022-09-06T16:16:02.543Z,3.13
2022-09-06T16:18:47.945Z,3.00
2022-09-06T16:21:34.769Z,3.28
2022-09-06T16:24:21.301Z,3.30
2022-09-06T16:27:07.175Z,3.75
2022-09-06T16:29:52.647Z,3.15
2022-09-06T16:32:38.112Z,3.97
2022-09-06T16:35:23.593Z,3.95
2022-09-06T16:38:09.755Z,4.05
2022-09-06T16:40:55.158Z,3.47
2022-09-06T16:43:40.707Z,5.00
2022-09-06T16:46:29.851Z,3.08
2022-09-06T16:49:17.397Z,4.22
2022-09-06T16:52:03.389Z,3.45
2022-09-06T16:54:48.813Z,2.47
2022-09-06T16:57:34.745Z,3.33
2022-09-06T17:00:20.150Z,2.92
2022-09-06T17:03:05.365Z,3.03
2022-09-06T17:05:52.247Z,2.72
2022-09-06T17:08:37.651Z,2.38
2022-09-06T17:11:23.381Z,2.45
2022-09-06T17:14:08.885Z,2.58
2022-09-06T17:17:07.026Z,3.38
2022-09-06T17:19:52.721Z,2.00
2022-09-06T17:22:38.402Z,1.80
2022-09-06T17:25:24.026Z,2.15
2022-09-06T17:28:09.427Z,1.98
2022-09-06T17:30:55.517Z,2.45
2022-09-06T17:33:40.819Z,2.58
2022-09-06T17:36:29.852Z,1.90
2022-09-06T17:39:18.243Z,1.65
2022-09-06T17:42:04.368Z,2.10
2022-09-06T17:44:49.645Z,1.50
2022-09-06T17:47:35.257Z,1.83
2022-09-06T17:50:20.878Z,1.92
2022-09-06T17:53:06.214Z,1.70
2022-09-06T17:55:52.279Z,1.70
2022-09-06T17:58:39.022Z,2.00
2022-09-06T18:01:26.597Z,2.15
2022-09-06T18:04:13.771Z,2.15
2022-09-06T18:06:59.120Z,2.17
2022-09-06T18:09:44.905Z,1.90
2022-09-06T18:12:31.494Z,1.90
2022-09-06T18:15:17.731Z,2.15
2022-09-06T18:18:03.901Z,2.33
2022-09-06T18:20:51.267Z,2.17
2022-09-06T18:23:36.591Z,1.83
2022-09-06T18:26:23.032Z,2.13
2022-09-06T18:29:12.036Z,2.10
2022-09-06T18:31:57.851Z,3.40
2022-09-06T18:34:43.194Z,2.30
2022-09-06T18:37:28.596Z,2.20
2022-09-06T18:40:14.317Z,2.05
2022-09-06T18:42:59.991Z,1.95
2022-09-06T18:45:46.051Z,2.13
2022-09-06T18:48:33.108Z,1.63
2022-09-06T18:51:18.446Z,1.52
2022-09-06T18:54:04.137Z,1.17
2022-09-06T18:56:52.394Z,2.00
2022-09-06T18:59:37.935Z,1.55
2022-09-06T19:02:25.576Z,2.30
2022-09-06T19:05:11.620Z,1.60
2022-09-06T19:07:57.062Z,1.67
2022-09-06T19:10:43.063Z,1.60
2022-09-06T19:13:32.547Z,2.47
2022-09-06T19:16:19.000Z,2.22
2022-09-06T19:19:06.877Z,1.83
2022-09-06T19:21:52.238Z,2.03
2022-09-06T19:24:39.239Z,1.60
2022-09-06T19:27:24.859Z,1.45
2022-09-06T19:30:11.018Z,1.90
2022-09-06T19:32:56.441Z,2.55
2022-09-06T19:35:55.866Z,1.40
2022-09-06T19:39:02.497Z,1.73
2022-09-06T19:41:49.099Z,1.70
2022-09-06T19:44:34.727Z,1.50
2022-09-06T19:47:20.388Z,1.85
2022-09-06T19:50:06.764Z,1.38
2022-09-06T19:52:52.462Z,1.77
2022-09-06T19:55:38.010Z,1.67
2022-09-06T19:58:25.838Z,1.48
2022-09-06T20:01:17.948Z,2.13
2022-09-06T20:04:07.991Z,1.42
2022-09-06T20:06:53.882Z,3.22
2022-09-06T20:09:40.118Z,1.25
2022-09-06T20:12:25.618Z,1.40
2022-09-06T20:15:11.772Z,1.90
2022-09-06T20:17:57.316Z,1.52
2022-09-06T20:20:43.534Z,2.08
2022-09-06T20:23:30.218Z,1.73
2022-09-06T20:26:15.884Z,1.90
2022-09-06T20:29:02.411Z,2.05
2022-09-06T20:31:47.685Z,1.67
2022-09-06T20:34:33.755Z,1.60
2022-09-06T20:37:18.948Z,1.98
2022-09-06T20:40:06.657Z,2.08
2022-09-06T20:42:52.931Z,1.73
2022-09-06T20:45:38.770Z,1.55
2022-09-06T20:48:24.041Z,2.17
2022-09-06T20:51:12.715Z,1.65
2022-09-06T20:54:00.525Z,1.98
2022-09-06T20:56:45.597Z,1.73
2022-09-06T20:59:31.161Z,2.08
2022-09-06T21:02:16.915Z,2.33
2022-09-06T21:05:02.568Z,1.90
2022-09-06T21:07:47.991Z,1.90
2022-09-06T21:10:33.537Z,2.08
2022-09-06T21:13:18.962Z,1.88
2022-09-06T21:16:05.621Z,1.50
2022-09-06T21:18:56.447Z,2.38
2022-09-06T21:21:42.446Z,1.83
2022-09-06T21:24:27.971Z,1.75
2022-09-06T21:27:13.483Z,3.25
2022-09-06T21:29:58.872Z,2.15
2022-09-06T21:32:44.382Z,2.13
2022-09-06T21:35:29.743Z,3.13
2022-09-06T21:38:15.724Z,3.10
2022-09-06T21:41:01.026Z,3.00
2022-09-06T21:43:46.618Z,2.17
2022-09-06T21:46:34.945Z,2.97
2022-09-06T21:49:20.289Z,1.70
2022-09-06T21:52:05.948Z,1.75
2022-09-06T21:54:51.573Z,2.67
2022-09-06T21:57:37.019Z,2.78
2022-09-06T22:00:22.454Z,2.63
2022-09-06T22:03:09.358Z,1.73
2022-09-06T22:05:55.301Z,1.60
2022-09-06T22:08:43.966Z,1.92
2022-09-06T22:11:32.166Z,2.83
2022-09-06T22:14:17.783Z,2.80
2022-09-06T22:17:03.271Z,2.47
2022-09-06T22:19:48.492Z,2.30
2022-09-06T22:22:34.526Z,2.45
2022-09-06T22:25:20.023Z,2.22
2022-09-06T22:28:05.769Z,1.80
2022-09-06T22:30:51.386Z,2.65
2022-09-06T22:33:37.026Z,2.33
2022-09-06T22:36:26.323Z,1.70
2022-09-06T22:39:12.084Z,1.75
2022-09-06T22:42:00.811Z,2.50
2022-09-06T22:44:46.069Z,1.67
2022-09-06T22:47:31.619Z,2.80
2022-09-06T22:50:17.151Z,1.83
2022-09-06T22:53:02.821Z,1.63
2022-09-06T22:55:48.806Z,1.65
2022-09-06T22:58:37.668Z,1.85
2022-09-06T23:01:23.077Z,3.40
2022-09-06T23:04:09.821Z,1.70
2022-09-06T23:06:55.227Z,1.83
2022-09-06T23:09:40.691Z,1.60
2022-09-06T23:12:26.191Z,2.20
2022-09-06T23:15:12.084Z,1.80
2022-09-06T23:17:58.079Z,2.20
2022-09-06T23:20:43.322Z,1.52
2022-09-06T23:23:30.411Z,3.67
2022-09-06T23:26:21.284Z,1.80
2022-09-06T23:29:07.370Z,2.00
2022-09-06T23:31:53.073Z,2.45
2022-09-06T23:34:39.026Z,1.55
2022-09-06T23:37:24.227Z,2.00
2022-09-06T23:40:10.322Z,1.88
2022-09-06T23:42:55.829Z,1.70
2022-09-06T23:45:41.448Z,2.63
2022-09-06T23:48:27.284Z,1.50
2022-09-06T23:51:13.269Z,1.88
2022-09-06T23:53:59.011Z,2.08
2022-09-06T23:56:44.401Z,2.92
2022-09-06T23:59:29.996Z,2.67
